createdAt,value
2022-12-17T00:00:41.335Z,72.24
2022-12-17T00:01:41.266Z,72.03
2022-12-17T00:02:41.365Z,71.83
2022-12-17T00:03:42.049Z,71.93
2022-12-17T00:04:41.275Z,72.56
2022-12-17T00:05:41.196Z,72.66
2022-12-17T00:06:41.203Z,72.87
2022-12-17T00:07:41.188Z,72.77
2022-12-17T00:08:41.175Z,72.98
2022-12-17T00:09:42.615Z,72.77
2022-12-17T00:10:41.180Z,72.98
2022-12-17T00:11:41.178Z,73.15
2022-12-17T00:12:41.141Z,72.98
2022-12-17T00:13:41.181Z,72.66
2022-12-17T00:14:41.180Z,72.11
2022-12-17T00:15:41.159Z,72.34
2022-12-17T00:16:41.247Z,72.31
2022-12-17T00:17:41.105Z,72.31
2022-12-17T00:18:41.080Z,72.00
2022-12-17T00:19:41.057Z,72.11
2022-12-17T00:20:41.064Z,72.21
2022-12-17T00:21:41.053Z,72.00
2022-12-17T00:22:41.055Z,72.31
2022-12-17T00:23:41.009Z,72.42
2022-12-17T00:24:41.000Z,72.42
2022-12-17T00:25:41.020Z,72.11
2022-12-17T00:26:40.975Z,71.69
2022-12-17T00:27:40.961Z,71.89
2022-12-17T00:28:40.992Z,71.79
2022-12-17T00:29:40.946Z,71.79
2022-12-17T00:30:40.942Z,71.79
2022-12-17T00:31:40.997Z,71.89
2022-12-17T00:32:40.929Z,71.89
2022-12-17T00:33:40.926Z,71.66
2022-12-17T00:34:40.904Z,71.76
2022-12-17T00:35:40.877Z,71.66
2022-12-17T00:36:40.878Z,71.34
2022-12-17T00:37:40.885Z,71.48
2022-12-17T00:38:40.875Z,71.58
2022-12-17T00:39:40.833Z,71.69
2022-12-17T00:40:40.836Z,72.03
2022-12-17T00:41:40.812Z,72.21
2022-12-17T00:42:40.827Z,72.94
2022-12-17T00:43:40.803Z,72.52
2022-12-17T00:44:40.814Z,72.31
2022-12-17T00:45:40.851Z,72.42
2022-12-17T00:46:40.834Z,72.45
2022-12-17T00:47:40.776Z,72.34
2022-12-17T00:48:40.785Z,72.14
2022-12-17T00:49:40.745Z,72.45
2022-12-17T00:50:40.716Z,72.56
2022-12-17T00:51:40.783Z,72.77
2022-12-17T00:52:40.705Z,72.84
2022-12-17T00:53:40.722Z,73.15
2022-12-17T00:54:40.679Z,72.94
2022-12-17T00:55:40.690Z,72.94
2022-12-17T00:56:40.650Z,72.52
2022-12-17T00:57:40.640Z,72.52
2022-12-17T00:58:40.648Z,72.18
2022-12-17T00:59:40.654Z,72.28
2022-12-17T01:00:40.691Z,71.97
2022-12-17T01:01:40.882Z,71.97
2022-12-17T01:02:40.739Z,71.97
2022-12-17T01:03:40.576Z,71.86
2022-12-17T01:04:40.594Z,71.69
2022-12-17T01:05:40.586Z,71.86
2022-12-17T01:06:40.546Z,71.97
2022-12-17T01:07:40.536Z,72.18
2022-12-17T01:08:40.521Z,71.89
2022-12-17T01:09:40.549Z,71.97
2022-12-17T01:10:40.515Z,71.97
2022-12-17T01:11:40.493Z,71.86
2022-12-17T01:12:40.482Z,71.86
2022-12-17T01:13:40.470Z,71.76
2022-12-17T01:14:40.457Z,71.37
2022-12-17T01:15:40.483Z,71.79
2022-12-17T01:16:40.529Z,72.11
2022-12-17T01:17:40.439Z,71.89
2022-12-17T01:18:40.421Z,71.89
2022-12-17T01:19:40.427Z,71.83
2022-12-17T01:20:40.419Z,71.83
2022-12-17T01:21:40.392Z,72.00
2022-12-17T01:22:40.372Z,72.31
2022-12-17T01:23:40.385Z,72.52
2022-12-17T01:24:40.393Z,72.31
2022-12-17T01:25:40.344Z,72.00
2022-12-17T01:26:40.329Z,72.00
2022-12-17T01:27:40.325Z,71.93
2022-12-17T01:28:40.312Z,71.93
2022-12-17T01:29:40.314Z,71.93
2022-12-17T01:30:40.310Z,72.56
2022-12-17T01:31:40.371Z,72.34
2022-12-17T01:32:40.313Z,72.45
2022-12-17T01:33:40.264Z,72.77
2022-12-17T01:34:40.268Z,72.87
2022-12-17T01:35:40.273Z,73.50
2022-12-17T01:36:40.238Z,73.99
2022-12-17T01:37:40.216Z,73.08
2022-12-17T01:38:40.233Z,73.79
2022-12-17T01:39:40.212Z,73.19
2022-12-17T01:40:40.184Z,73.05
2022-12-17T01:41:40.176Z,72.94
2022-12-17T01:42:40.178Z,73.05
2022-12-17T01:43:40.194Z,72.77
2022-12-17T01:44:40.138Z,73.26
2022-12-17T01:45:40.200Z,73.29
2022-12-17T01:46:40.116Z,73.05
2022-12-17T01:47:40.116Z,73.82
2022-12-17T01:48:40.139Z,72.87
2022-12-17T01:49:40.088Z,73.19
2022-12-17T01:50:40.074Z,72.98
2022-12-17T01:51:40.081Z,73.01
2022-12-17T01:52:40.100Z,73.50
2022-12-17T01:53:40.051Z,73.82
2022-12-17T01:54:40.072Z,74.13
2022-12-17T01:55:40.020Z,73.92
2022-12-17T01:56:40.040Z,74.44
2022-12-17T01:57:40.012Z,74.24
2022-12-17T01:58:39.989Z,74.55
2022-12-17T01:59:40.007Z,74.44
2022-12-17T02:00:40.057Z,74.24
2022-12-17T02:01:40.189Z,73.68
2022-12-17T02:02:40.119Z,74.24
2022-12-17T02:03:39.943Z,74.65
2022-12-17T02:04:39.951Z,73.71
2022-12-17T02:05:39.976Z,74.30
2022-12-17T02:06:39.931Z,74.13
2022-12-17T02:07:40.002Z,74.02
2022-12-17T02:08:39.908Z,74.24
2022-12-17T02:09:39.881Z,74.55
2022-12-17T02:10:39.888Z,74.52
2022-12-17T02:11:39.862Z,74.62
2022-12-17T02:12:39.837Z,73.99
2022-12-17T02:13:39.888Z,74.20
2022-12-17T02:14:39.816Z,73.99
2022-12-17T02:15:39.808Z,74.41
2022-12-17T02:16:39.861Z,74.02
2022-12-17T02:17:39.810Z,73.89
2022-12-17T02:18:39.809Z,74.41
2022-12-17T02:19:39.768Z,74.20
2022-12-17T02:20:39.758Z,74.20
2022-12-17T02:21:39.741Z,74.41
2022-12-17T02:22:39.731Z,74.10
2022-12-17T02:23:39.802Z,73.65
2022-12-17T02:24:39.758Z,73.68
2022-12-17T02:25:39.705Z,73.85
2022-12-17T02:26:39.698Z,73.85
2022-12-17T02:27:39.722Z,73.44
2022-12-17T02:28:39.667Z,73.75
2022-12-17T02:29:39.662Z,73.44
2022-12-17T02:30:39.649Z,73.44
2022-12-17T02:31:39.708Z,73.75
2022-12-17T02:32:39.626Z,73.02
2022-12-17T02:33:39.640Z,72.81
2022-12-17T02:34:39.614Z,72.60
2022-12-17T02:35:39.607Z,72.63
2022-12-17T02:36:39.582Z,72.70
2022-12-17T02:37:39.569Z,72.91
2022-12-17T02:38:39.598Z,73.05
2022-12-17T02:39:39.557Z,73.22
2022-12-17T02:40:39.565Z,72.91
2022-12-17T02:41:39.574Z,73.05
2022-12-17T02:42:39.541Z,72.84
2022-12-17T02:43:39.512Z,73.57
2022-12-17T02:44:39.514Z,73.79
2022-12-17T02:45:39.555Z,73.99
2022-12-17T02:46:39.477Z,73.85
2022-12-17T02:47:39.488Z,73.96
2022-12-17T02:48:39.459Z,74.17
2022-12-17T02:49:39.439Z,73.82
2022-12-17T02:50:39.460Z,74.24
2022-12-17T02:51:39.418Z,73.93
2022-12-17T02:52:39.419Z,74.03
2022-12-17T02:53:39.410Z,73.75
2022-12-17T02:54:39.421Z,73.40
2022-12-17T02:55:39.402Z,73.40
2022-12-17T02:56:39.388Z,72.88
2022-12-17T02:57:43.593Z,72.98
2022-12-17T02:58:39.369Z,72.88
2022-12-17T02:59:39.343Z,72.67
2022-12-17T03:00:39.382Z,72.91
2022-12-17T03:01:39.470Z,72.91
2022-12-17T03:02:39.401Z,72.98
2022-12-17T03:03:39.825Z,73.85
2022-12-17T03:04:39.288Z,73.61
2022-12-17T03:05:46.509Z,73.40
2022-12-17T03:06:40.316Z,73.40
2022-12-17T03:07:39.245Z,73.44
2022-12-17T03:08:39.245Z,73.44
2022-12-17T03:09:39.232Z,73.75
2022-12-17T03:10:39.228Z,73.96
2022-12-17T03:11:39.231Z,73.93
2022-12-17T03:12:39.220Z,73.93
2022-12-17T03:13:39.186Z,74.45
2022-12-17T03:14:39.183Z,73.93
2022-12-17T03:15:39.220Z,74.03
2022-12-17T03:16:39.236Z,73.61
2022-12-17T03:17:39.170Z,73.72
2022-12-17T03:18:39.146Z,72.60
2022-12-17T03:19:39.125Z,72.39
2022-12-17T03:20:39.120Z,73.12
2022-12-17T03:21:39.112Z,73.22
2022-12-17T03:22:39.119Z,73.12
2022-12-17T03:23:39.449Z,73.02
2022-12-17T03:24:39.085Z,73.12
2022-12-17T03:25:39.053Z,73.02
2022-12-17T03:26:39.049Z,73.02
2022-12-17T03:27:39.036Z,72.91
2022-12-17T03:28:39.085Z,73.02
2022-12-17T03:29:39.043Z,73.44
2022-12-17T03:30:39.328Z,73.44
2022-12-17T03:31:39.060Z,73.40
2022-12-17T03:32:38.983Z,73.33
2022-12-17T03:33:39.297Z,73.40
2022-12-17T03:34:38.968Z,73.72
2022-12-17T03:35:38.979Z,73.12
2022-12-17T03:36:38.989Z,72.60
2022-12-17T03:37:38.941Z,72.91
2022-12-17T03:38:38.918Z,72.77
2022-12-17T03:39:38.903Z,72.98
2022-12-17T03:40:38.902Z,72.70
2022-12-17T03:41:38.905Z,72.67
2022-12-17T03:42:38.892Z,72.28
2022-12-17T03:43:38.970Z,72.07
2022-12-17T03:44:38.869Z,72.28
2022-12-17T03:45:38.921Z,72.49
2022-12-17T03:46:38.836Z,72.35
2022-12-17T03:47:38.857Z,72.28
2022-12-17T03:48:38.812Z,72.49
2022-12-17T03:49:38.803Z,72.28
2022-12-17T03:50:38.787Z,71.94
2022-12-17T03:51:38.777Z,71.55
2022-12-17T03:52:38.784Z,71.44
2022-12-17T03:53:38.987Z,71.23
2022-12-17T03:54:38.745Z,71.23
2022-12-17T03:55:38.736Z,71.23
2022-12-17T03:56:38.726Z,71.44
2022-12-17T03:57:38.779Z,71.26
2022-12-17T03:58:38.715Z,71.37
2022-12-17T03:59:38.691Z,71.48
2022-12-17T04:00:38.701Z,71.37
2022-12-17T04:01:38.785Z,71.26
2022-12-17T04:02:38.999Z,71.26
2022-12-17T04:03:39.379Z,71.48
2022-12-17T04:04:38.655Z,71.41
2022-12-17T04:05:38.624Z,71.61
2022-12-17T04:06:38.619Z,72.34
2022-12-17T04:07:38.615Z,71.79
2022-12-17T04:08:38.630Z,72.11
2022-12-17T04:09:38.594Z,72.11
2022-12-17T04:10:38.588Z,71.79
2022-12-17T04:11:38.566Z,71.89
2022-12-17T04:12:38.551Z,71.89
2022-12-17T04:13:41.058Z,72.00
2022-12-17T04:14:38.531Z,71.58
2022-12-17T04:15:38.640Z,71.69
2022-12-17T04:16:38.530Z,71.26
2022-12-17T04:17:38.500Z,71.26
2022-12-17T04:18:38.537Z,71.20
2022-12-17T04:19:38.490Z,71.20
2022-12-17T04:20:38.470Z,71.41
2022-12-17T04:21:38.471Z,71.61
2022-12-17T04:22:38.460Z,72.03
2022-12-17T04:23:38.812Z,72.24
2022-12-17T04:24:38.429Z,72.21
2022-12-17T04:25:38.409Z,72.14
2022-12-17T04:26:38.445Z,72.52
2022-12-17T04:27:38.420Z,72.52
2022-12-17T04:28:38.424Z,72.31
2022-12-17T04:29:38.404Z,72.63
2022-12-17T04:30:38.414Z,72.63
2022-12-17T04:31:38.395Z,72.42
2022-12-17T04:32:38.360Z,72.42
2022-12-17T04:33:38.974Z,72.42
2022-12-17T04:34:38.348Z,72.74
2022-12-17T04:35:38.355Z,73.05
2022-12-17T04:36:38.296Z,72.81
2022-12-17T04:37:38.282Z,73.05
2022-12-17T04:38:38.272Z,72.39
2022-12-17T04:39:38.284Z,72.70
2022-12-17T04:40:38.249Z,72.70
2022-12-17T04:41:38.256Z,72.39
2022-12-17T04:42:38.235Z,72.60
2022-12-17T04:43:38.830Z,72.39
2022-12-17T04:44:38.271Z,72.39
2022-12-17T04:45:38.238Z,72.18
2022-12-17T04:46:38.286Z,72.18
2022-12-17T04:47:38.173Z,72.52
2022-12-17T04:48:38.183Z,72.70
2022-12-17T04:49:38.166Z,73.44
2022-12-17T04:50:38.147Z,73.44
2022-12-17T04:51:38.178Z,74.06
2022-12-17T04:52:38.150Z,73.93
2022-12-17T04:53:38.574Z,73.82
2022-12-17T04:54:38.115Z,73.93
2022-12-17T04:55:38.091Z,73.82
2022-12-17T04:56:38.105Z,73.72
2022-12-17T04:57:38.112Z,73.82
2022-12-17T04:58:38.067Z,73.82
2022-12-17T04:59:38.047Z,73.50
2022-12-17T05:00:38.054Z,73.40
2022-12-17T05:01:38.081Z,73.50
2022-12-17T05:02:42.479Z,73.19
2022-12-17T05:03:38.400Z,73.30
2022-12-17T05:04:38.008Z,72.35
2022-12-17T05:05:37.994Z,72.39
2022-12-17T05:06:38.003Z,72.28
2022-12-17T05:07:37.963Z,72.28
2022-12-17T05:08:41.379Z,72.91
2022-12-17T05:09:37.980Z,73.05
2022-12-17T05:10:37.931Z,73.26
2022-12-17T05:11:37.947Z,74.06
2022-12-17T05:12:37.921Z,73.68
2022-12-17T05:13:38.348Z,74.27
2022-12-17T05:14:37.899Z,73.96
2022-12-17T05:15:37.952Z,74.27
2022-12-17T05:16:37.876Z,74.52
2022-12-17T05:17:37.885Z,74.73
2022-12-17T05:18:37.857Z,74.48
2022-12-17T05:19:37.863Z,74.20
2022-12-17T05:20:37.870Z,74.10
2022-12-17T05:21:37.812Z,74.20
2022-12-17T05:22:37.807Z,74.93
2022-12-17T05:23:38.128Z,74.83
2022-12-17T05:24:37.781Z,74.83
2022-12-17T05:25:37.767Z,74.80
2022-12-17T05:26:37.765Z,75.04
2022-12-17T05:27:37.781Z,75.11
2022-12-17T05:28:37.737Z,75.01
2022-12-17T05:29:37.767Z,74.10
2022-12-17T05:30:37.747Z,74.93
2022-12-17T05:31:37.777Z,74.93
2022-12-17T05:32:37.704Z,75.21
2022-12-17T05:33:38.118Z,75.63
2022-12-17T05:34:37.672Z,74.69
2022-12-17T05:35:37.697Z,74.69
2022-12-17T05:36:37.701Z,74.97
2022-12-17T05:37:37.641Z,75.49
2022-12-17T05:38:37.637Z,75.29
2022-12-17T05:39:37.621Z,75.08
2022-12-17T05:40:37.612Z,74.76
2022-12-17T05:41:37.664Z,75.46
2022-12-17T05:42:37.588Z,74.76
2022-12-17T05:43:38.074Z,74.66
2022-12-17T05:44:37.580Z,74.84
2022-12-17T05:45:37.554Z,75.35
2022-12-17T05:46:37.657Z,74.52
2022-12-17T05:47:37.597Z,74.31
2022-12-17T05:48:37.558Z,74.34
2022-12-17T05:49:37.545Z,74.13
2022-12-17T05:50:37.510Z,74.34
2022-12-17T05:51:39.060Z,74.55
2022-12-17T05:52:37.507Z,74.13
2022-12-17T05:53:38.466Z,74.03
2022-12-17T05:54:37.468Z,74.87
2022-12-17T05:55:37.456Z,74.97
2022-12-17T05:56:37.448Z,75.18
2022-12-17T05:57:37.429Z,75.29
2022-12-17T05:58:37.434Z,75.29
2022-12-17T05:59:37.422Z,75.60
2022-12-17T06:00:37.395Z,75.60
2022-12-17T06:01:37.460Z,74.97
2022-12-17T06:02:37.545Z,74.97
2022-12-17T06:03:37.886Z,75.04
2022-12-17T06:04:37.382Z,74.97
2022-12-17T06:05:37.357Z,74.03
2022-12-17T06:06:37.334Z,74.87
2022-12-17T06:07:37.330Z,74.84
2022-12-17T06:08:37.363Z,74.62
2022-12-17T06:09:37.332Z,74.24
2022-12-17T06:10:37.298Z,74.52
2022-12-17T06:11:37.325Z,74.03
2022-12-17T06:12:37.266Z,74.87
2022-12-17T06:13:37.768Z,74.76
2022-12-17T06:14:37.246Z,75.18
2022-12-17T06:15:37.272Z,75.60
2022-12-17T06:16:37.308Z,74.55
2022-12-17T06:17:37.230Z,74.34
2022-12-17T06:18:37.207Z,74.03
2022-12-17T06:19:37.201Z,74.66
2022-12-17T06:20:37.216Z,74.97
2022-12-17T06:21:37.177Z,74.73
2022-12-17T06:22:37.158Z,75.49
2022-12-17T06:23:37.609Z,75.29
2022-12-17T06:24:40.197Z,75.15
2022-12-17T06:25:38.156Z,74.41
2022-12-17T06:26:37.115Z,74.66
2022-12-17T06:27:37.110Z,75.35
2022-12-17T06:28:37.095Z,74.73
2022-12-17T06:29:37.112Z,74.52
2022-12-17T06:30:37.088Z,74.10
2022-12-17T06:31:37.110Z,75.46
2022-12-17T06:32:37.050Z,75.29
2022-12-17T06:33:37.305Z,74.66
2022-12-17T06:34:37.031Z,75.29
2022-12-17T06:35:37.055Z,75.04
2022-12-17T06:36:37.017Z,74.94
2022-12-17T06:37:37.013Z,75.25
2022-12-17T06:38:37.011Z,74.94
2022-12-17T06:39:36.978Z,75.15
2022-12-17T06:40:36.985Z,74.94
2022-12-17T06:41:36.988Z,75.01
2022-12-17T06:42:36.951Z,75.04
2022-12-17T06:43:37.188Z,75.11
2022-12-17T06:44:36.972Z,75.04
2022-12-17T06:45:36.914Z,74.80
2022-12-17T06:46:36.990Z,75.11
2022-12-17T06:47:36.902Z,75.11
2022-12-17T06:48:36.902Z,74.59
2022-12-17T06:49:36.881Z,74.49
2022-12-17T06:50:36.903Z,74.69
2022-12-17T06:51:36.877Z,74.27
2022-12-17T06:52:36.848Z,74.27
2022-12-17T06:53:37.363Z,73.96
2022-12-17T06:54:36.825Z,74.59
2022-12-17T06:55:36.820Z,74.49
2022-12-17T06:56:36.885Z,75.53
2022-12-17T06:57:41.166Z,75.11
2022-12-17T06:58:36.783Z,75.11
2022-12-17T06:59:36.800Z,74.52
2022-12-17T07:00:36.871Z,74.84
2022-12-17T07:01:36.977Z,75.15
2022-12-17T07:02:36.934Z,75.46
2022-12-17T07:03:37.115Z,75.78
2022-12-17T07:04:36.724Z,75.39
2022-12-17T07:05:36.730Z,75.67
2022-12-17T07:06:36.706Z,75.88
2022-12-17T07:07:36.713Z,76.06
2022-12-17T07:08:36.672Z,75.74
2022-12-17T07:09:36.661Z,75.63
2022-12-17T07:10:36.663Z,75.67
2022-12-17T07:11:36.664Z,75.84
2022-12-17T07:12:36.675Z,75.84
2022-12-17T07:13:36.953Z,75.63
2022-12-17T07:14:36.604Z,75.43
2022-12-17T07:15:36.595Z,75.43
2022-12-17T07:16:36.695Z,75.32
2022-12-17T07:17:36.571Z,75.22
2022-12-17T07:18:36.696Z,75.11
2022-12-17T07:19:36.556Z,75.08
2022-12-17T07:20:36.583Z,74.87
2022-12-17T07:21:36.836Z,75.29
2022-12-17T07:22:36.519Z,74.98
2022-12-17T07:23:36.899Z,75.71
2022-12-17T07:24:36.543Z,75.92
2022-12-17T07:25:37.826Z,75.29
2022-12-17T07:26:36.493Z,75.04
2022-12-17T07:27:36.465Z,75.15
2022-12-17T07:28:36.474Z,74.84
2022-12-17T07:29:36.478Z,75.36
2022-12-17T07:30:36.465Z,75.36
2022-12-17T07:31:36.462Z,74.55
2022-12-17T07:32:36.423Z,74.63
2022-12-17T07:33:36.974Z,74.52
2022-12-17T07:34:36.420Z,74.31
2022-12-17T07:35:36.423Z,75.36
2022-12-17T07:36:36.399Z,75.26
2022-12-17T07:37:36.358Z,75.04
2022-12-17T07:38:36.390Z,75.04
2022-12-17T07:39:36.344Z,75.46
2022-12-17T07:40:36.328Z,74.63
2022-12-17T07:41:36.327Z,74.98
2022-12-17T07:42:36.344Z,74.84
2022-12-17T07:43:36.666Z,75.36
2022-12-17T07:44:36.313Z,75.26
2022-12-17T07:45:36.311Z,75.26
2022-12-17T07:46:36.260Z,75.15
2022-12-17T07:47:36.301Z,75.46
2022-12-17T07:48:36.278Z,75.26
2022-12-17T07:49:36.231Z,75.78
2022-12-17T07:50:36.217Z,75.67
2022-12-17T07:51:36.215Z,75.36
2022-12-17T07:52:36.220Z,75.67
2022-12-17T07:53:36.491Z,75.46
2022-12-17T07:54:36.194Z,75.57
2022-12-17T07:55:36.205Z,75.71
2022-12-17T07:56:36.158Z,75.78
2022-12-17T07:57:36.208Z,75.60
2022-12-17T07:58:36.134Z,75.57
2022-12-17T07:59:36.130Z,76.02
2022-12-17T08:00:36.135Z,76.12
2022-12-17T08:01:36.212Z,76.33
2022-12-17T08:02:36.373Z,76.23
2022-12-17T08:03:36.623Z,76.20
2022-12-17T08:04:36.070Z,76.12
2022-12-17T08:05:36.076Z,76.33
2022-12-17T08:06:36.046Z,76.33
2022-12-17T08:07:36.041Z,77.06
2022-12-17T08:08:36.084Z,77.20
2022-12-17T08:09:36.027Z,77.06
2022-12-17T08:10:36.039Z,76.96
2022-12-17T08:11:36.007Z,77.24
2022-12-17T08:12:36.003Z,76.72
2022-12-17T08:13:36.425Z,76.93
2022-12-17T08:14:35.984Z,76.82
2022-12-17T08:15:35.976Z,77.03
2022-12-17T08:16:36.068Z,76.61
2022-12-17T08:17:35.942Z,76.02
2022-12-17T08:18:35.918Z,76.54
2022-12-17T08:19:35.911Z,76.40
2022-12-17T08:20:35.903Z,76.09
2022-12-17T08:21:35.903Z,76.51
2022-12-17T08:22:35.912Z,76.09
2022-12-17T08:23:36.247Z,75.92
2022-12-17T08:24:35.854Z,76.02
2022-12-17T08:25:35.849Z,76.12
2022-12-17T08:26:35.841Z,76.23
2022-12-17T08:27:35.853Z,76.33
2022-12-17T08:28:50.468Z,77.28
2022-12-17T08:29:36.802Z,77.14
2022-12-17T08:30:35.924Z,76.30
2022-12-17T08:31:35.784Z,76.33
2022-12-17T08:32:35.815Z,76.44
2022-12-17T08:33:36.172Z,76.54
2022-12-17T08:34:35.748Z,77.03
2022-12-17T08:35:35.770Z,77.34
2022-12-17T08:36:35.746Z,77.34
2022-12-17T08:37:35.760Z,76.54
2022-12-17T08:38:35.707Z,76.96
2022-12-17T08:39:35.697Z,77.06
2022-12-17T08:40:35.718Z,76.86
2022-12-17T08:41:35.679Z,76.96
2022-12-17T08:42:35.661Z,77.17
2022-12-17T08:43:36.177Z,77.14
2022-12-17T08:44:35.656Z,76.82
2022-12-17T08:45:35.707Z,76.96
2022-12-17T08:46:35.660Z,77.34
2022-12-17T08:47:35.625Z,77.14
2022-12-17T08:48:35.614Z,76.61
2022-12-17T08:49:35.593Z,77.03
2022-12-17T08:50:35.580Z,76.82
2022-12-17T08:51:35.609Z,77.03
2022-12-17T08:52:35.556Z,76.96
2022-12-17T08:53:35.668Z,77.14
2022-12-17T08:54:35.570Z,77.48
2022-12-17T08:55:35.570Z,77.66
2022-12-17T08:56:35.521Z,77.76
2022-12-17T08:57:35.552Z,77.66
2022-12-17T08:58:35.526Z,77.76
2022-12-17T08:59:35.505Z,77.55
2022-12-17T09:00:35.481Z,77.55
2022-12-17T09:01:35.698Z,77.45
2022-12-17T09:02:35.671Z,77.45
2022-12-17T09:03:35.968Z,77.59
2022-12-17T09:04:35.469Z,77.80
2022-12-17T09:05:35.455Z,78.11
2022-12-17T09:06:39.145Z,78.01
2022-12-17T09:07:35.399Z,78.32
2022-12-17T09:08:35.450Z,78.01
2022-12-17T09:09:35.374Z,78.32
2022-12-17T09:10:35.483Z,78.74
2022-12-17T09:11:35.414Z,78.91
2022-12-17T09:12:35.342Z,78.60
2022-12-17T09:13:35.716Z,79.02
2022-12-17T09:14:35.332Z,78.91
2022-12-17T09:15:35.309Z,78.60
2022-12-17T09:16:35.334Z,78.28
2022-12-17T09:17:35.344Z,78.53
2022-12-17T09:18:35.276Z,78.08
2022-12-17T09:19:35.335Z,78.60
2022-12-17T09:20:35.279Z,78.74
2022-12-17T09:21:35.247Z,78.60
2022-12-17T09:22:35.263Z,78.74
2022-12-17T09:23:35.701Z,78.70
2022-12-17T09:24:35.214Z,79.02
2022-12-17T09:25:35.220Z,78.49
2022-12-17T09:26:35.200Z,79.12
2022-12-17T09:27:35.180Z,78.81
2022-12-17T09:28:35.194Z,78.70
2022-12-17T09:29:35.169Z,78.39
2022-12-17T09:30:35.256Z,78.49
2022-12-17T09:31:37.437Z,78.35
2022-12-17T09:32:35.149Z,78.28
2022-12-17T09:33:35.545Z,78.56
2022-12-17T09:34:35.129Z,77.94
2022-12-17T09:35:35.112Z,77.83
2022-12-17T09:36:35.137Z,77.51
2022-12-17T09:37:35.101Z,77.62
2022-12-17T09:38:35.070Z,77.31
2022-12-17T09:39:35.052Z,77.73
2022-12-17T09:40:35.060Z,77.51
2022-12-17T09:41:35.030Z,77.62
2022-12-17T09:42:35.051Z,77.10
2022-12-17T09:43:35.323Z,77.20
2022-12-17T09:44:35.028Z,77.62
2022-12-17T09:45:34.988Z,77.10
2022-12-17T09:46:35.088Z,77.10
2022-12-17T09:47:34.994Z,77.31
2022-12-17T09:48:34.952Z,77.80
2022-12-17T09:49:34.966Z,76.96
2022-12-17T09:50:34.965Z,77.06
2022-12-17T09:51:34.965Z,77.10
2022-12-17T09:52:34.935Z,77.38
2022-12-17T09:53:35.294Z,77.06
2022-12-17T09:54:34.891Z,77.06
2022-12-17T09:55:34.903Z,76.79
2022-12-17T09:56:34.876Z,77.00
2022-12-17T09:57:34.859Z,77.00
2022-12-17T09:58:34.849Z,77.00
2022-12-17T09:59:34.884Z,77.34
2022-12-17T10:00:34.861Z,77.14
2022-12-17T10:01:34.943Z,77.66
2022-12-17T10:02:35.039Z,78.28
2022-12-17T10:03:35.316Z,78.18
2022-12-17T10:04:34.786Z,77.97
2022-12-17T10:05:34.811Z,78.08
2022-12-17T10:06:34.779Z,78.60
2022-12-17T10:07:34.758Z,78.49
2022-12-17T10:08:34.755Z,78.14
2022-12-17T10:09:34.734Z,77.94
2022-12-17T10:10:34.741Z,78.04
2022-12-17T10:11:35.019Z,77.41
2022-12-17T10:12:34.757Z,77.27
2022-12-17T10:13:35.140Z,77.38
2022-12-17T10:14:34.678Z,77.06
2022-12-17T10:15:34.768Z,76.96
2022-12-17T10:16:34.668Z,77.10
2022-12-17T10:17:34.647Z,77.00
2022-12-17T10:18:34.676Z,77.10
2022-12-17T10:19:34.643Z,77.10
2022-12-17T10:20:34.611Z,77.06
2022-12-17T10:21:34.639Z,77.10
2022-12-17T10:22:38.096Z,77.24
2022-12-17T10:23:35.000Z,77.83
2022-12-17T10:24:34.590Z,77.55
2022-12-17T10:25:34.560Z,78.35
2022-12-17T10:26:34.545Z,77.73
2022-12-17T10:27:34.543Z,77.83
2022-12-17T10:28:34.534Z,77.62
2022-12-17T10:29:34.545Z,78.11
2022-12-17T10:30:34.557Z,77.59
2022-12-17T10:31:34.605Z,77.55
2022-12-17T10:32:34.506Z,77.14
2022-12-17T10:33:34.860Z,76.92
2022-12-17T10:34:34.487Z,76.75
2022-12-17T10:35:34.449Z,77.03
2022-12-17T10:36:34.459Z,76.44
2022-12-17T10:37:34.443Z,77.31
2022-12-17T10:38:34.473Z,77.00
2022-12-17T10:39:34.415Z,76.93
2022-12-17T10:40:34.523Z,77.10
2022-12-17T10:41:34.389Z,77.41
2022-12-17T10:42:34.687Z,77.20
2022-12-17T10:43:34.796Z,77.10
2022-12-17T10:44:34.389Z,76.86
2022-12-17T10:45:34.350Z,77.38
2022-12-17T10:46:34.441Z,76.86
2022-12-17T10:47:34.351Z,76.96
2022-12-17T10:48:34.403Z,77.24
2022-12-17T10:49:34.330Z,77.17
2022-12-17T10:50:34.292Z,76.30
2022-12-17T10:51:34.275Z,76.09
2022-12-17T10:52:34.267Z,76.30
2022-12-17T10:53:34.787Z,76.20
2022-12-17T10:54:34.263Z,75.98
2022-12-17T10:55:34.249Z,75.98
2022-12-17T10:56:34.249Z,75.78
2022-12-17T10:57:34.228Z,75.88
2022-12-17T10:58:34.202Z,75.46
2022-12-17T10:59:34.223Z,75.60
2022-12-17T11:00:34.244Z,76.12
2022-12-17T11:01:34.320Z,76.23
2022-12-17T11:02:34.395Z,76.75
2022-12-17T11:03:34.625Z,77.06
2022-12-17T11:04:34.157Z,76.86
2022-12-17T11:05:34.138Z,77.17
2022-12-17T11:06:37.500Z,77.00
2022-12-17T11:07:35.113Z,76.96
2022-12-17T11:08:34.415Z,77.17
2022-12-17T11:09:34.112Z,76.06
2022-12-17T11:10:34.099Z,77.00
2022-12-17T11:11:34.084Z,77.31
2022-12-17T11:12:34.073Z,77.17
2022-12-17T11:13:34.585Z,77.27
2022-12-17T11:14:34.058Z,77.14
2022-12-17T11:15:34.184Z,76.09
2022-12-17T11:16:34.057Z,76.20
2022-12-17T11:17:33.997Z,76.20
2022-12-17T11:18:34.013Z,76.20
2022-12-17T11:19:34.008Z,76.02
2022-12-17T11:20:34.070Z,76.23
2022-12-17T11:21:33.999Z,76.20
2022-12-17T11:22:33.945Z,75.71
2022-12-17T11:23:34.261Z,76.12
2022-12-17T11:24:33.929Z,75.74
2022-12-17T11:25:33.911Z,76.30
2022-12-17T11:26:33.996Z,77.20
2022-12-17T11:27:33.916Z,77.10
2022-12-17T11:28:33.899Z,76.89
2022-12-17T11:29:33.899Z,77.06
2022-12-17T11:30:33.906Z,76.96
2022-12-17T11:31:33.936Z,76.92
2022-12-17T11:32:33.931Z,77.03
2022-12-17T11:33:34.058Z,76.33
2022-12-17T11:34:33.819Z,76.20
2022-12-17T11:35:33.803Z,76.33
2022-12-17T11:36:38.774Z,76.09
2022-12-17T11:37:34.809Z,75.71
2022-12-17T11:38:34.133Z,75.81
2022-12-17T11:39:33.783Z,75.60
2022-12-17T11:40:33.757Z,76.12
2022-12-17T11:41:33.770Z,75.50
2022-12-17T11:42:33.744Z,75.85
2022-12-17T11:43:33.725Z,75.53
2022-12-17T11:44:33.818Z,75.43
2022-12-17T11:45:33.696Z,75.57
2022-12-17T11:46:33.746Z,75.98
2022-12-17T11:47:33.676Z,76.37
2022-12-17T11:48:34.026Z,76.26
2022-12-17T11:49:33.696Z,76.37
2022-12-17T11:50:33.692Z,75.95
2022-12-17T11:51:33.634Z,75.95
2022-12-17T11:52:33.624Z,75.78
2022-12-17T11:53:33.613Z,75.78
2022-12-17T11:54:33.630Z,75.98
2022-12-17T11:55:33.593Z,76.30
2022-12-17T11:56:33.632Z,76.09
2022-12-17T11:57:33.616Z,75.98
2022-12-17T11:58:33.697Z,77.03
2022-12-17T11:59:33.574Z,76.79
2022-12-17T12:00:33.629Z,76.79
2022-12-17T12:01:33.591Z,77.10
2022-12-17T12:02:33.590Z,76.96
2022-12-17T12:03:33.603Z,76.33
2022-12-17T12:04:33.493Z,75.98
2022-12-17T12:05:33.482Z,75.88
2022-12-17T12:06:33.504Z,75.71
2022-12-17T12:07:33.484Z,75.57
2022-12-17T12:08:33.613Z,75.29
2022-12-17T12:09:33.439Z,75.32
2022-12-17T12:10:33.466Z,75.74
2022-12-17T12:11:33.455Z,75.50
2022-12-17T12:12:33.408Z,75.50
2022-12-17T12:13:33.429Z,75.71
2022-12-17T12:14:33.390Z,75.57
2022-12-17T12:15:33.428Z,75.57
2022-12-17T12:16:33.467Z,75.39
2022-12-17T12:17:33.356Z,75.29
2022-12-17T12:18:33.427Z,75.18
2022-12-17T12:19:33.371Z,75.57
2022-12-17T12:20:33.332Z,75.26
2022-12-17T12:21:33.342Z,75.05
2022-12-17T12:22:33.304Z,75.39
2022-12-17T12:23:33.292Z,74.98
2022-12-17T12:24:33.281Z,75.74
2022-12-17T12:25:33.304Z,75.32
2022-12-17T12:26:33.283Z,75.88
2022-12-17T12:27:37.728Z,77.17
2022-12-17T12:28:33.284Z,77.34
2022-12-17T12:29:33.249Z,77.38
2022-12-17T12:30:33.213Z,77.48
2022-12-17T12:31:33.283Z,77.80
2022-12-17T12:32:33.213Z,77.87
2022-12-17T12:33:33.218Z,77.97
2022-12-17T12:34:33.172Z,77.97
2022-12-17T12:35:33.163Z,77.62
2022-12-17T12:36:33.152Z,77.10
2022-12-17T12:37:33.161Z,76.89
2022-12-17T12:38:33.143Z,77.03
2022-12-17T12:39:33.143Z,76.37
2022-12-17T12:40:33.110Z,76.37
2022-12-17T12:41:33.120Z,75.95
2022-12-17T12:42:33.088Z,76.37
2022-12-17T12:43:33.088Z,76.09
2022-12-17T12:44:33.105Z,76.30
2022-12-17T12:45:33.168Z,75.98
2022-12-17T12:46:33.060Z,76.61
2022-12-17T12:47:33.071Z,76.30
2022-12-17T12:48:33.036Z,76.09
2022-12-17T12:49:33.017Z,76.12
2022-12-17T12:50:33.025Z,76.96
2022-12-17T12:51:34.383Z,77.20
2022-12-17T12:52:32.986Z,77.20